Preskocit navigáciu

OPMET


METAR LZMC 131500Z 27006KT CAVOK 25/08 Q1025=
METAR LZSL 131500Z 27010KT 250V310 CAVOK 23/09 Q1023=
METAR LZPW 131500Z 22006KT 170V260 CAVOK 23/09 Q1022=


TAF LZMC 131330Z 1315/1324 24004KT CAVOK
TEMPO 1315/1318 32010KT
TEMPO 1318/1324 18006KT=
TAF LZSL 131330Z 1315/1324 31008KT CAVOK
BECMG 1318/1320 VRB03KT=
TAF LZPW 131330Z 1315/1324 21008KT CAVOK=



Oblastné QNH:
LZBB 15/18 1021 HPA 765.8 MM =

























Skočiť na menu


Share